createdAt,value
2019-06-20T20:55:50.257Z,17.020874
2019-06-20T20:56:50.132Z,17.020874
2019-06-20T20:57:50.283Z,17.020874
2019-06-20T20:58:50.445Z,17.020874
2019-06-20T20:59:50.424Z,17.051086
2019-06-20T21:00:50.459Z,17.020874
2019-06-20T21:01:50.586Z,17.051086
2019-06-20T21:02:51.729Z,17.041016
2019-06-20T21:03:50.792Z,17.051086
2019-06-20T21:04:50.899Z,17.020874
2019-06-20T21:05:51.929Z,17.020874
2019-06-20T21:07:58.747Z,16.990662
2019-06-20T21:08:59.344Z,17.020874
2019-06-20T21:10:30.962Z,16.950378
2019-06-20T21:11:28.700Z,16.990662
2019-06-20T21:12:41.257Z,17.010803
2019-06-20T21:13:31.768Z,17.010803
2019-06-20T21:14:29.772Z,16.990662
2019-06-20T21:15:28.838Z,17.010803
2019-06-20T21:16:28.928Z,17.020874
2019-06-20T21:17:29.037Z,17.020874
2019-06-20T21:18:29.115Z,17.010803
2019-06-20T21:19:29.207Z,17.020874
2019-06-20T21:20:29.304Z,17.010803
2019-06-20T21:21:29.423Z,17.010803
2019-06-20T21:22:29.471Z,17.020874
2019-06-20T21:23:29.602Z,17.020874
2019-06-20T21:24:29.730Z,17.020874
2019-06-20T21:25:32.119Z,17.041016
2019-06-20T21:26:29.903Z,17.041016
2019-06-20T21:27:29.956Z,17.041016
2019-06-20T21:28:30.118Z,17.020874
2019-06-20T21:29:30.164Z,17.020874
2019-06-20T21:30:30.251Z,16.990662
2019-06-20T21:31:30.388Z,16.980591
2019-06-20T21:32:30.471Z,16.980591
2019-06-20T21:33:30.561Z,16.990662
2019-06-20T21:34:30.662Z,16.990662
2019-06-20T21:35:30.766Z,17.010803
2019-06-20T21:36:30.980Z,17.010803
2019-06-20T21:37:30.913Z,17.051086
2019-06-20T21:38:31.090Z,17.051086
2019-06-20T21:39:30.995Z,17.071228
2019-06-20T21:40:31.137Z,17.071228
2019-06-20T21:41:31.394Z,17.09137
2019-06-20T21:42:31.280Z,17.09137
2019-06-20T21:43:31.413Z,17.09137
2019-06-20T21:44:31.499Z,17.071228
2019-06-20T21:45:31.596Z,17.10144
2019-06-20T21:46:31.739Z,17.071228
2019-06-20T21:47:31.754Z,17.09137
2019-06-20T21:48:31.851Z,17.10144
2019-06-20T21:49:31.973Z,17.10144
2019-06-20T21:50:32.012Z,17.131653
2019-06-20T21:51:32.106Z,17.121582
2019-06-20T21:52:32.243Z,17.121582
2019-06-20T21:53:32.386Z,17.131653
2019-06-20T21:54:32.412Z,17.131653
2019-06-20T21:55:32.515Z,17.121582
2019-06-20T21:56:32.643Z,17.10144
2019-06-20T21:57:32.789Z,17.071228
2019-06-20T21:58:32.848Z,17.051086
2019-06-20T21:59:32.942Z,17.051086
2019-06-20T22:00:33.010Z,17.041016
2019-06-20T22:01:33.099Z,17.020874
2019-06-20T22:02:33.229Z,17.010803
2019-06-20T22:03:33.376Z,17.020874
2019-06-20T22:04:33.498Z,17.010803
2019-06-20T22:05:33.518Z,16.990662
2019-06-20T22:06:33.713Z,16.97052
2019-06-20T22:07:33.673Z,16.980591
2019-06-20T22:08:33.778Z,16.950378
2019-06-20T22:09:33.853Z,16.920166
2019-06-20T22:10:33.917Z,16.920166
2019-06-20T22:11:33.998Z,16.889954
2019-06-20T22:12:34.146Z,16.869812
2019-06-20T22:13:34.212Z,16.859741
2019-06-20T22:14:34.326Z,16.8396
2019-06-20T22:15:34.422Z,16.8396
2019-06-20T22:16:35.499Z,16.829529
2019-06-20T22:17:34.598Z,16.829529
2019-06-20T22:18:34.683Z,16.819458
2019-06-20T22:19:34.745Z,16.819458
2019-06-20T22:20:34.867Z,16.789246
2019-06-20T22:21:34.923Z,16.789246
2019-06-20T22:22:35.051Z,16.769104
2019-06-20T22:23:35.125Z,16.789246
2019-06-20T22:24:35.203Z,16.799316
2019-06-20T22:25:35.313Z,16.819458
2019-06-20T22:26:35.386Z,16.799316
2019-06-20T22:27:35.606Z,16.819458
2019-06-20T22:28:35.646Z,16.819458
2019-06-20T22:29:35.734Z,16.799316
2019-06-20T22:30:35.839Z,16.819458
2019-06-20T22:31:35.924Z,16.819458
2019-06-20T22:32:36.041Z,16.799316
2019-06-20T22:33:36.027Z,16.819458
2019-06-20T22:34:36.134Z,16.799316
2019-06-20T22:35:36.228Z,16.769104
2019-06-20T22:36:40.439Z,16.759033
2019-06-20T22:37:36.353Z,16.759033
2019-06-20T22:38:36.477Z,16.728821
2019-06-20T22:39:36.544Z,16.688538
2019-06-20T22:40:36.644Z,16.678467
2019-06-20T22:41:36.742Z,16.658325
2019-06-20T22:42:36.832Z,16.638184
2019-06-20T22:43:36.992Z,16.577759
2019-06-20T22:44:37.074Z,16.567688
2019-06-20T22:45:38.159Z,16.537476
2019-06-20T22:46:37.302Z,16.487122
2019-06-20T22:47:37.401Z,16.487122
2019-06-20T22:48:37.509Z,16.456909
2019-06-20T22:49:37.577Z,16.46698
2019-06-20T22:50:37.679Z,16.46698
2019-06-20T22:51:37.761Z,16.456909
2019-06-20T22:52:37.857Z,16.456909
2019-06-20T22:53:38.491Z,16.46698
2019-06-20T22:54:37.990Z,16.46698
2019-06-20T22:55:38.076Z,16.456909
2019-06-20T22:56:38.161Z,16.456909
2019-06-20T22:57:38.240Z,16.456909
2019-06-20T22:58:38.382Z,16.436768
2019-06-20T22:59:38.484Z,16.426697
2019-06-20T23:00:38.559Z,16.426697
2019-06-20T23:01:38.644Z,16.426697
2019-06-20T23:02:38.721Z,16.426697
2019-06-20T23:03:38.766Z,16.406555
2019-06-20T23:04:38.726Z,16.396484
2019-06-20T23:05:38.810Z,16.386414
2019-06-20T23:06:52.566Z,16.386414
2019-06-20T23:07:38.829Z,16.386414
2019-06-20T23:08:38.915Z,16.386414
2019-06-20T23:09:39.036Z,16.396484
2019-06-20T23:10:39.170Z,16.426697
2019-06-20T23:11:39.251Z,16.406555
2019-06-20T23:12:39.375Z,16.406555
2019-06-20T23:13:39.473Z,16.436768
2019-06-20T23:14:39.580Z,16.456909
2019-06-20T23:15:39.697Z,16.456909
2019-06-20T23:16:39.784Z,16.436768
2019-06-20T23:17:39.854Z,16.436768
2019-06-20T23:18:39.987Z,16.426697
2019-06-20T23:19:40.099Z,16.426697
2019-06-20T23:20:40.222Z,16.456909
2019-06-20T23:21:40.286Z,16.456909
2019-06-20T23:22:40.365Z,16.456909
2019-06-20T23:23:40.476Z,16.436768
2019-06-20T23:24:40.599Z,16.456909
2019-06-20T23:25:40.564Z,16.456909
2019-06-20T23:26:40.639Z,16.436768
2019-06-20T23:27:40.725Z,16.436768
2019-06-20T23:28:40.784Z,16.426697
2019-06-20T23:29:40.969Z,16.436768
2019-06-20T23:30:40.894Z,16.456909
2019-06-20T23:31:40.969Z,16.46698
2019-06-20T23:32:41.083Z,16.436768
2019-06-20T23:33:41.199Z,16.436768
2019-06-20T23:34:41.273Z,16.436768
2019-06-20T23:35:41.376Z,16.436768
2019-06-20T23:36:41.450Z,16.406555
2019-06-20T23:37:41.550Z,16.396484
2019-06-20T23:38:41.632Z,16.406555
2019-06-20T23:39:41.775Z,16.386414
2019-06-20T23:40:41.871Z,16.386414
2019-06-20T23:41:41.980Z,16.396484
2019-06-20T23:42:42.076Z,16.386414
2019-06-20T23:43:42.138Z,16.356201
2019-06-20T23:44:42.253Z,16.33606
2019-06-20T23:45:42.365Z,16.305847
2019-06-20T23:46:42.444Z,16.315918
2019-06-20T23:47:42.522Z,16.305847
2019-06-20T23:48:42.594Z,16.285706
2019-06-20T23:49:42.699Z,16.275635
2019-06-20T23:50:42.816Z,16.285706
2019-06-20T23:51:42.929Z,16.275635
2019-06-20T23:52:43.011Z,16.275635
2019-06-20T23:53:43.094Z,16.275635
2019-06-20T23:54:43.197Z,16.255493
2019-06-20T23:55:43.356Z,16.255493
2019-06-20T23:56:43.449Z,16.255493
2019-06-20T23:57:43.565Z,16.245422
2019-06-20T23:58:43.651Z,16.245422
2019-06-20T23:59:43.645Z,16.235352
